createdAt,value
2022-12-20T00:01:34.365Z,6.40
2022-12-20T00:04:06.299Z,6.40
2022-12-20T00:06:37.321Z,6.40
2022-12-20T00:09:07.737Z,6.40
2022-12-20T00:11:36.634Z,6.50
2022-12-20T00:14:04.978Z,6.30
2022-12-20T00:16:33.270Z,6.40
2022-12-20T00:19:04.617Z,6.30
2022-12-20T00:21:34.496Z,6.20
2022-12-20T00:24:05.214Z,6.00
2022-12-20T00:26:34.993Z,5.90
2022-12-20T00:29:03.416Z,5.90
2022-12-20T00:31:32.759Z,5.90
2022-12-20T00:34:02.068Z,6.10
2022-12-20T00:36:32.487Z,6.20
2022-12-20T00:39:01.874Z,6.20
2022-12-20T00:41:33.625Z,6.20
2022-12-20T00:44:04.153Z,6.10
2022-12-20T00:46:34.342Z,6.20
2022-12-20T00:49:02.831Z,6.20
2022-12-20T00:51:32.634Z,6.20
2022-12-20T00:54:01.040Z,6.20
2022-12-20T00:56:30.925Z,6.20
2022-12-20T00:59:00.619Z,6.20
2022-12-20T01:01:31.351Z,6.20
2022-12-20T01:04:00.611Z,6.20
2022-12-20T01:06:29.783Z,6.20
2022-12-20T01:08:58.776Z,6.10
2022-12-20T01:11:29.672Z,6.10
2022-12-20T01:14:02.435Z,6.10
2022-12-20T01:16:37.185Z,6.10
2022-12-20T01:19:06.323Z,6.00
2022-12-20T01:21:34.564Z,5.80
2022-12-20T01:24:02.831Z,5.60
2022-12-20T01:26:31.034Z,5.60
2022-12-20T01:29:01.336Z,5.90
2022-12-20T01:31:31.023Z,6.00
2022-12-20T01:34:01.827Z,6.00
2022-12-20T01:36:32.242Z,6.10
2022-12-20T01:39:02.155Z,6.00
2022-12-20T01:41:32.176Z,6.10
2022-12-20T01:44:03.499Z,6.00
2022-12-20T01:46:32.977Z,6.10
2022-12-20T01:49:06.851Z,6.10
2022-12-20T01:51:39.698Z,6.10
2022-12-20T01:54:12.035Z,6.20
2022-12-20T01:56:42.060Z,6.20
2022-12-20T01:59:15.925Z,6.20
2022-12-20T02:01:45.553Z,6.20
2022-12-20T02:04:14.206Z,6.20
2022-12-20T02:06:42.414Z,6.20
2022-12-20T02:09:10.691Z,6.20
2022-12-20T02:12:02.333Z,6.30
2022-12-20T02:14:45.164Z,6.20
2022-12-20T02:17:25.199Z,6.20
2022-12-20T02:20:32.096Z,6.20
2022-12-20T02:23:30.102Z,6.30
2022-12-20T02:26:15.813Z,6.30
2022-12-20T02:29:04.022Z,6.20
2022-12-20T02:31:40.193Z,6.40
2022-12-20T02:34:11.787Z,6.50
2022-12-20T02:36:40.745Z,6.60
2022-12-20T02:39:17.073Z,6.40
2022-12-20T02:41:51.511Z,6.40
2022-12-20T02:44:46.804Z,6.40
2022-12-20T02:47:21.799Z,6.40
2022-12-20T02:49:51.715Z,6.30
2022-12-20T02:52:22.101Z,6.30
2022-12-20T02:54:53.302Z,6.30
2022-12-20T02:57:26.631Z,6.20
2022-12-20T03:00:02.496Z,6.30
2022-12-20T03:02:56.046Z,6.30
2022-12-20T03:05:27.188Z,6.30
2022-12-20T03:07:55.915Z,6.30
2022-12-20T03:10:26.596Z,6.30
2022-12-20T03:12:54.881Z,6.20
2022-12-20T03:15:23.428Z,6.10
2022-12-20T03:17:56.088Z,5.90
2022-12-20T03:20:24.582Z,5.90
2022-12-20T03:22:52.914Z,5.90
2022-12-20T03:25:21.213Z,6.00
2022-12-20T03:27:49.780Z,6.30
2022-12-20T03:30:19.291Z,6.20
2022-12-20T03:32:47.662Z,6.30
2022-12-20T03:35:17.713Z,6.30
2022-12-20T03:37:46.013Z,6.40
2022-12-20T03:40:16.048Z,6.40
2022-12-20T03:42:45.332Z,6.30
2022-12-20T03:45:16.860Z,6.40
2022-12-20T03:47:45.546Z,6.40
2022-12-20T03:50:14.344Z,6.50
2022-12-20T03:52:45.902Z,6.30
2022-12-20T03:55:14.113Z,6.30
2022-12-20T03:57:44.888Z,6.30
2022-12-20T04:00:26.217Z,6.40
2022-12-20T04:03:01.602Z,6.40
2022-12-20T04:05:31.790Z,6.40
2022-12-20T04:08:01.708Z,6.30
2022-12-20T04:10:29.966Z,6.40
2022-12-20T04:12:58.217Z,6.30
2022-12-20T04:15:26.494Z,6.30
2022-12-20T04:17:55.106Z,6.40
2022-12-20T04:20:23.463Z,6.40
2022-12-20T04:23:12.156Z,6.50
2022-12-20T04:25:40.399Z,6.40
2022-12-20T04:28:08.959Z,6.40
2022-12-20T04:30:37.188Z,6.40
2022-12-20T04:33:05.517Z,6.40
2022-12-20T04:35:33.970Z,6.40
2022-12-20T04:38:02.963Z,6.50
2022-12-20T04:40:32.733Z,6.40
2022-12-20T04:43:03.703Z,6.40
2022-12-20T04:45:32.118Z,6.50
2022-12-20T04:48:14.763Z,6.50
2022-12-20T04:50:49.887Z,6.50
2022-12-20T04:53:35.523Z,6.50
2022-12-20T04:56:06.119Z,6.60
2022-12-20T04:58:34.329Z,6.40
2022-12-20T05:01:04.939Z,6.50
2022-12-20T05:03:42.357Z,6.30
2022-12-20T05:06:11.687Z,6.30
2022-12-20T05:08:41.381Z,6.40
2022-12-20T05:11:11.399Z,6.30
2022-12-20T05:13:40.010Z,5.90
2022-12-20T05:16:09.376Z,5.90
2022-12-20T05:18:41.602Z,5.90
2022-12-20T05:21:30.204Z,6.10
2022-12-20T05:24:15.476Z,6.20
2022-12-20T05:26:59.297Z,6.40
2022-12-20T05:29:27.634Z,6.40
2022-12-20T05:31:56.507Z,6.50
2022-12-20T05:34:26.696Z,6.50
2022-12-20T05:36:56.821Z,6.50
2022-12-20T05:39:29.560Z,6.60
2022-12-20T05:42:02.735Z,6.60
2022-12-20T05:44:31.053Z,6.70
2022-12-20T05:46:59.511Z,6.70
2022-12-20T05:49:31.136Z,6.70
2022-12-20T05:52:02.867Z,6.70
2022-12-20T05:54:31.216Z,6.70
2022-12-20T05:57:08.798Z,6.90
2022-12-20T05:59:39.699Z,6.90
2022-12-20T06:02:14.061Z,6.90
2022-12-20T06:04:43.400Z,6.90
2022-12-20T06:07:18.909Z,6.80
2022-12-20T06:09:50.071Z,6.80
2022-12-20T06:12:23.121Z,6.60
2022-12-20T06:14:52.611Z,6.70
2022-12-20T06:17:21.925Z,6.80
2022-12-20T06:19:50.260Z,6.80
2022-12-20T06:22:18.993Z,6.80
2022-12-20T06:24:53.991Z,6.90
2022-12-20T06:27:28.399Z,6.90
2022-12-20T06:30:16.071Z,6.90
2022-12-20T06:33:05.211Z,6.90
2022-12-20T06:35:33.551Z,6.80
2022-12-20T06:38:01.978Z,6.70
2022-12-20T06:40:33.880Z,6.70
2022-12-20T06:43:04.179Z,6.70
2022-12-20T06:45:37.575Z,6.70
2022-12-20T06:48:10.005Z,6.70
2022-12-20T06:50:39.569Z,6.70
2022-12-20T06:53:08.704Z,6.70
2022-12-20T06:55:37.112Z,7.00
2022-12-20T06:58:06.934Z,6.80
2022-12-20T07:00:38.224Z,6.70
2022-12-20T07:03:06.585Z,6.80
2022-12-20T07:05:34.921Z,6.90
2022-12-20T07:08:04.434Z,7.00
2022-12-20T07:10:32.938Z,6.90
2022-12-20T07:13:01.147Z,6.90
2022-12-20T07:15:30.710Z,7.00
2022-12-20T07:17:58.924Z,7.00
2022-12-20T07:20:27.203Z,7.00
2022-12-20T07:22:55.540Z,7.10
2022-12-20T07:25:24.711Z,7.10
2022-12-20T07:27:53.134Z,7.20
2022-12-20T07:30:33.538Z,7.20
2022-12-20T07:33:03.086Z,7.30
2022-12-20T07:35:31.269Z,7.30
2022-12-20T07:37:59.634Z,7.30
2022-12-20T07:40:27.902Z,7.30
2022-12-20T07:42:57.101Z,7.20
2022-12-20T07:45:26.054Z,7.20
2022-12-20T07:47:54.623Z,7.30
2022-12-20T07:50:24.755Z,7.40
2022-12-20T07:52:53.319Z,7.40
2022-12-20T07:55:22.625Z,7.60
2022-12-20T07:57:54.148Z,7.30
2022-12-20T08:00:23.657Z,7.20
2022-12-20T08:02:57.379Z,7.20
2022-12-20T08:05:27.161Z,7.20
2022-12-20T08:07:59.878Z,7.20
2022-12-20T08:10:28.950Z,7.20
2022-12-20T08:12:58.693Z,7.30
2022-12-20T08:15:27.529Z,7.30
2022-12-20T08:17:55.730Z,7.20
2022-12-20T08:20:23.882Z,7.20
2022-12-20T08:22:53.442Z,7.00
2022-12-20T08:25:22.647Z,7.00
2022-12-20T08:27:50.857Z,7.00
2022-12-20T08:30:19.279Z,7.10
2022-12-20T08:32:47.461Z,7.20
2022-12-20T08:35:15.642Z,7.50
2022-12-20T08:37:43.907Z,7.40
2022-12-20T08:40:14.777Z,7.40
2022-12-20T08:42:43.027Z,7.60
2022-12-20T08:45:12.536Z,7.70
2022-12-20T08:47:40.995Z,7.70
2022-12-20T08:50:10.013Z,7.80
2022-12-20T08:52:38.239Z,7.80
2022-12-20T08:55:07.460Z,7.90
2022-12-20T08:57:37.039Z,8.00
2022-12-20T09:00:06.013Z,8.00
2022-12-20T09:02:35.894Z,8.00
2022-12-20T09:05:04.992Z,8.10
2022-12-20T09:07:33.455Z,8.20
2022-12-20T09:10:01.799Z,8.20
2022-12-20T09:12:30.167Z,8.30
2022-12-20T09:14:59.714Z,8.30
2022-12-20T09:17:27.859Z,8.40
2022-12-20T09:19:56.266Z,8.40
2022-12-20T09:22:24.471Z,8.50
2022-12-20T09:24:52.672Z,8.50
2022-12-20T09:27:20.867Z,8.60
2022-12-20T09:29:49.062Z,8.80
2022-12-20T09:32:18.629Z,8.90
2022-12-20T09:34:48.284Z,9.10
2022-12-20T09:37:16.471Z,9.20
2022-12-20T09:39:44.669Z,9.30
2022-12-20T09:42:16.310Z,9.40
2022-12-20T09:44:44.739Z,9.50
2022-12-20T09:47:19.599Z,9.60
2022-12-20T09:49:51.516Z,9.70
2022-12-20T09:52:30.649Z,9.80
2022-12-20T09:55:11.077Z,10.10
2022-12-20T09:57:55.205Z,10.20
2022-12-20T10:00:23.650Z,10.60
2022-12-20T10:03:02.491Z,10.70
2022-12-20T10:05:45.910Z,10.90
2022-12-20T10:08:25.449Z,11.10
2022-12-20T10:10:57.212Z,10.80
2022-12-20T10:13:36.203Z,10.70
2022-12-20T10:16:17.246Z,10.50
2022-12-20T10:19:01.494Z,10.50
2022-12-20T10:21:37.719Z,10.40
2022-12-20T10:24:11.388Z,10.50
2022-12-20T10:26:39.728Z,10.50
2022-12-20T10:29:07.939Z,10.50
2022-12-20T10:31:36.745Z,10.50
2022-12-20T10:34:07.473Z,10.50
2022-12-20T10:36:37.636Z,10.40
2022-12-20T10:39:07.888Z,10.50
2022-12-20T10:41:50.028Z,10.50
2022-12-20T10:44:24.960Z,10.20
2022-12-20T10:46:55.515Z,10.30
2022-12-20T10:49:31.210Z,10.30
2022-12-20T10:52:02.829Z,10.30
2022-12-20T10:54:34.386Z,10.10
2022-12-20T10:57:04.848Z,10.10
2022-12-20T10:59:36.159Z,10.10
2022-12-20T11:02:18.844Z,10.20
2022-12-20T11:04:58.999Z,10.30
2022-12-20T11:07:30.058Z,10.30
2022-12-20T11:10:00.388Z,10.40
2022-12-20T11:12:28.892Z,10.60
2022-12-20T11:15:10.335Z,11.00
2022-12-20T11:17:42.484Z,11.10
2022-12-20T11:20:27.895Z,11.10
2022-12-20T11:23:08.077Z,11.10
2022-12-20T11:25:49.740Z,11.10
2022-12-20T11:28:44.932Z,11.00
2022-12-20T11:31:21.503Z,10.90
2022-12-20T11:34:03.377Z,11.00
2022-12-20T11:36:49.470Z,11.10
2022-12-20T11:39:28.209Z,11.00
2022-12-20T11:42:07.903Z,11.10
2022-12-20T11:45:01.960Z,10.70
2022-12-20T11:47:58.369Z,10.60
2022-12-20T11:50:51.943Z,10.70
2022-12-20T11:53:27.563Z,10.90
2022-12-20T11:56:01.193Z,11.00
2022-12-20T11:58:35.390Z,11.20
2022-12-20T12:01:12.968Z,11.40
2022-12-20T12:03:43.604Z,11.50
2022-12-20T12:06:19.538Z,11.60
2022-12-20T12:08:54.149Z,11.70
2022-12-20T12:12:04.685Z,11.80
2022-12-20T12:14:23.951Z,11.70
2022-12-20T12:16:58.766Z,11.70
2022-12-20T12:19:31.219Z,11.70
2022-12-20T12:22:04.553Z,11.70
2022-12-20T12:24:39.144Z,11.60
2022-12-20T12:27:16.274Z,11.30
2022-12-20T12:29:44.690Z,11.40
2022-12-20T12:32:21.837Z,11.40
2022-12-20T12:35:04.749Z,11.40
2022-12-20T12:38:05.376Z,11.60
2022-12-20T12:41:13.006Z,11.40
2022-12-20T12:43:51.427Z,11.50
2022-12-20T12:46:26.146Z,11.60
2022-12-20T12:48:59.967Z,11.70
2022-12-20T12:51:32.231Z,11.60
2022-12-20T12:54:15.336Z,11.70
2022-12-20T12:56:47.269Z,11.60
2022-12-20T12:59:43.955Z,11.60
2022-12-20T13:02:50.074Z,11.60
2022-12-20T13:05:35.927Z,11.50
2022-12-20T13:08:04.806Z,11.50
2022-12-20T13:11:09.631Z,11.50
2022-12-20T13:13:37.812Z,11.40
2022-12-20T13:17:09.501Z,11.40
2022-12-20T13:19:32.201Z,11.30
2022-12-20T13:22:21.964Z,11.30
2022-12-20T13:24:57.231Z,11.40
2022-12-20T13:27:32.299Z,11.50
2022-12-20T13:30:30.515Z,11.40
2022-12-20T13:33:40.400Z,11.40
2022-12-20T13:36:35.419Z,11.20
2022-12-20T13:39:20.822Z,11.20
2022-12-20T13:41:52.410Z,11.20
2022-12-20T13:44:41.063Z,11.00
2022-12-20T13:47:35.383Z,11.10
2022-12-20T13:50:23.855Z,11.20
2022-12-20T13:52:54.670Z,11.20
2022-12-20T13:55:36.207Z,11.30
2022-12-20T13:58:13.999Z,11.20
2022-12-20T14:00:42.620Z,11.30
2022-12-20T14:03:22.853Z,11.40
2022-12-20T14:05:57.657Z,11.30
2022-12-20T14:08:30.273Z,11.20
2022-12-20T14:11:09.106Z,11.20
2022-12-20T14:13:37.223Z,11.30
2022-12-20T14:16:11.503Z,11.10
2022-12-20T14:18:40.851Z,11.10
2022-12-20T14:21:11.994Z,11.10
2022-12-20T14:23:43.589Z,10.90
2022-12-20T14:26:14.487Z,10.70
2022-12-20T14:28:45.430Z,10.80
2022-12-20T14:31:26.747Z,10.70
2022-12-20T14:34:04.253Z,10.60
2022-12-20T14:36:34.523Z,10.60
2022-12-20T14:39:02.977Z,10.70
2022-12-20T14:41:33.909Z,10.90
2022-12-20T14:44:06.762Z,10.90
2022-12-20T14:46:36.624Z,11.00
2022-12-20T14:49:23.778Z,10.90
2022-12-20T14:52:05.166Z,10.90
2022-12-20T14:55:06.179Z,10.80
2022-12-20T14:57:25.005Z,10.80
2022-12-20T15:00:02.476Z,10.80
2022-12-20T15:02:41.636Z,10.80
2022-12-20T15:05:26.274Z,10.80
2022-12-20T15:07:55.798Z,10.70
2022-12-20T15:10:24.672Z,10.60
2022-12-20T15:12:52.888Z,10.70
2022-12-20T15:15:29.431Z,10.60
2022-12-20T15:17:58.045Z,10.50
2022-12-20T15:20:26.171Z,10.40
2022-12-20T15:22:55.765Z,10.40
2022-12-20T15:25:23.909Z,10.30
2022-12-20T15:27:52.267Z,10.10
2022-12-20T15:30:20.596Z,10.00
2022-12-20T15:32:55.454Z,10.00
2022-12-20T15:35:24.891Z,10.00
2022-12-20T15:37:53.135Z,10.00
2022-12-20T15:40:22.635Z,10.00
2022-12-20T15:42:52.503Z,10.00
2022-12-20T15:45:21.214Z,10.10
2022-12-20T15:47:50.137Z,10.00
2022-12-20T15:50:18.353Z,10.00
2022-12-20T15:52:46.494Z,10.00
2022-12-20T15:55:14.624Z,10.10
2022-12-20T15:57:44.347Z,10.00
2022-12-20T16:00:13.870Z,10.10
2022-12-20T16:02:42.256Z,10.10
2022-12-20T16:05:14.561Z,10.10
2022-12-20T16:07:42.724Z,10.10
2022-12-20T16:10:15.381Z,10.10
2022-12-20T16:12:45.007Z,10.10
2022-12-20T16:15:21.796Z,10.20
2022-12-20T16:17:50.171Z,10.20
2022-12-20T16:20:19.373Z,10.20
2022-12-20T16:22:47.607Z,10.20
2022-12-20T16:25:25.052Z,10.20
2022-12-20T16:27:54.710Z,10.20
2022-12-20T16:30:23.599Z,10.30
2022-12-20T16:32:52.174Z,10.20
2022-12-20T16:35:28.164Z,10.20
2022-12-20T16:37:57.638Z,10.20
2022-12-20T16:40:27.237Z,10.30
2022-12-20T16:42:57.612Z,10.40
2022-12-20T16:45:27.776Z,10.30
2022-12-20T16:47:56.651Z,10.20
2022-12-20T16:50:26.671Z,10.30
2022-12-20T16:52:55.353Z,10.30
2022-12-20T16:55:26.259Z,10.30
2022-12-20T16:57:56.374Z,10.30
2022-12-20T17:00:27.238Z,10.30
2022-12-20T17:02:56.270Z,10.30
2022-12-20T17:05:28.558Z,10.10
2022-12-20T17:07:56.967Z,10.10
2022-12-20T17:10:27.039Z,10.00
2022-12-20T17:12:56.661Z,10.00
2022-12-20T17:15:28.044Z,10.00
2022-12-20T17:17:58.068Z,10.20
2022-12-20T17:20:26.281Z,10.10
2022-12-20T17:25:42.055Z,10.20
2022-12-20T17:28:11.687Z,10.10
2022-12-20T17:30:39.828Z,10.10
2022-12-20T17:33:07.957Z,10.20
2022-12-20T17:35:36.131Z,10.20
2022-12-20T17:38:06.919Z,10.20
2022-12-20T17:40:35.145Z,10.20
2022-12-20T17:43:03.324Z,10.20
2022-12-20T17:45:36.288Z,10.10
2022-12-20T17:48:06.605Z,10.20
2022-12-20T17:50:34.874Z,10.20
2022-12-20T17:53:04.097Z,10.30
2022-12-20T17:55:32.474Z,10.30
2022-12-20T17:58:00.609Z,10.20
2022-12-20T18:00:38.077Z,10.30
2022-12-20T18:03:24.580Z,10.20
2022-12-20T18:06:03.968Z,10.20
2022-12-20T18:08:36.009Z,10.20
2022-12-20T18:11:04.334Z,10.10
2022-12-20T18:13:32.533Z,10.20
2022-12-20T18:16:00.802Z,10.20
2022-12-20T18:18:36.723Z,10.20
2022-12-20T18:21:06.371Z,10.20
2022-12-20T18:23:35.052Z,10.20
2022-12-20T18:26:08.307Z,10.30
2022-12-20T18:28:37.094Z,10.30
2022-12-20T18:31:07.731Z,10.30
2022-12-20T18:33:39.198Z,10.30
2022-12-20T18:36:10.299Z,10.30
2022-12-20T18:38:39.607Z,10.30
2022-12-20T18:41:09.725Z,10.30
2022-12-20T18:43:38.015Z,10.30
2022-12-20T18:46:07.793Z,10.20
2022-12-20T18:48:37.420Z,10.20
2022-12-20T18:51:06.697Z,10.10
2022-12-20T18:53:36.243Z,10.10
2022-12-20T18:56:05.264Z,10.10
2022-12-20T18:58:34.029Z,10.10
2022-12-20T19:01:08.235Z,9.80
2022-12-20T19:03:38.857Z,9.70
2022-12-20T19:06:07.889Z,10.00
2022-12-20T19:08:36.248Z,10.20
2022-12-20T19:11:07.773Z,10.30
2022-12-20T19:13:36.659Z,10.30
2022-12-20T19:16:07.620Z,10.30
2022-12-20T19:18:37.786Z,10.20
2022-12-20T19:21:07.697Z,10.20
2022-12-20T19:23:36.999Z,10.30
2022-12-20T19:26:07.023Z,10.30
2022-12-20T19:28:36.363Z,10.30
2022-12-20T19:31:07.902Z,10.30
2022-12-20T19:33:39.512Z,10.30
2022-12-20T19:36:11.289Z,10.30
2022-12-20T19:38:43.597Z,10.30
2022-12-20T19:41:11.921Z,10.40
2022-12-20T19:43:40.217Z,10.30
2022-12-20T19:46:08.604Z,10.40
2022-12-20T19:48:38.656Z,10.50
2022-12-20T19:51:10.184Z,10.50
2022-12-20T19:53:39.328Z,10.40
2022-12-20T19:56:08.627Z,10.50
2022-12-20T19:58:37.038Z,10.40
2022-12-20T20:01:05.445Z,10.40
2022-12-20T20:03:33.798Z,10.40
2022-12-20T20:06:03.620Z,10.50
2022-12-20T20:08:31.764Z,10.40
2022-12-20T20:11:08.837Z,10.40
2022-12-20T20:13:38.441Z,10.30
2022-12-20T20:16:07.671Z,10.30
2022-12-20T20:18:37.092Z,10.20
2022-12-20T20:21:09.632Z,10.20
2022-12-20T20:23:38.429Z,10.10
2022-12-20T20:26:09.059Z,10.20
2022-12-20T20:28:45.431Z,10.20
2022-12-20T20:31:15.728Z,10.20
2022-12-20T20:33:44.443Z,10.20
2022-12-20T20:36:16.909Z,10.30
2022-12-20T20:38:45.724Z,10.20
2022-12-20T20:41:14.350Z,10.20
2022-12-20T20:43:43.330Z,10.20
2022-12-20T20:46:14.026Z,10.10
2022-12-20T20:48:42.842Z,9.80
2022-12-20T20:51:11.204Z,9.80
2022-12-20T20:53:40.795Z,9.80
2022-12-20T20:56:10.408Z,9.90
2022-12-20T20:58:39.439Z,9.90
2022-12-20T21:01:09.488Z,9.90
2022-12-20T21:03:38.515Z,9.80
2022-12-20T21:08:58.868Z,9.90
2022-12-20T21:11:27.369Z,10.10
2022-12-20T21:13:56.271Z,10.10
2022-12-20T21:16:24.649Z,10.10
2022-12-20T21:18:53.338Z,10.20
2022-12-20T21:21:22.455Z,10.30
2022-12-20T21:23:51.137Z,10.50
2022-12-20T21:26:22.370Z,10.40
2022-12-20T21:28:50.938Z,10.40
2022-12-20T21:31:20.586Z,10.50
2022-12-20T21:33:48.879Z,10.70
2022-12-20T21:36:19.288Z,10.60
2022-12-20T21:38:50.344Z,10.50
2022-12-20T21:41:21.684Z,10.60
2022-12-20T21:43:50.043Z,10.90
2022-12-20T21:46:18.660Z,11.00
2022-12-20T21:48:47.801Z,11.00
2022-12-20T21:51:18.270Z,11.00
2022-12-20T21:53:48.421Z,11.10
2022-12-20T21:56:17.367Z,11.10
2022-12-20T21:58:47.795Z,11.20
2022-12-20T22:01:19.062Z,11.30
2022-12-20T22:03:50.242Z,11.60
2022-12-20T22:06:18.476Z,11.70
2022-12-20T22:08:49.895Z,11.50
2022-12-20T22:11:19.683Z,11.60
2022-12-20T22:13:49.221Z,11.40
2022-12-20T22:16:21.167Z,11.30
2022-12-20T22:18:51.019Z,11.50
2022-12-20T22:21:20.477Z,11.50
2022-12-20T22:23:49.157Z,11.60
2022-12-20T22:26:20.062Z,11.60
2022-12-20T22:28:52.023Z,11.60
2022-12-20T22:31:21.154Z,11.70
2022-12-20T22:33:49.652Z,11.80
2022-12-20T22:36:18.029Z,11.60
2022-12-20T22:38:46.497Z,11.60
2022-12-20T22:41:16.892Z,11.60
2022-12-20T22:43:46.050Z,11.60
2022-12-20T22:46:17.355Z,11.70
2022-12-20T22:48:46.467Z,11.50
2022-12-20T22:51:16.157Z,11.50
2022-12-20T22:53:44.609Z,11.50
2022-12-20T22:56:13.021Z,11.40
2022-12-20T22:58:41.790Z,11.50
2022-12-20T23:01:13.660Z,11.50
2022-12-20T23:03:44.432Z,11.50
2022-12-20T23:06:15.826Z,11.50
2022-12-20T23:08:44.519Z,11.50
2022-12-20T23:11:34.985Z,11.70
2022-12-20T23:14:21.862Z,11.60
2022-12-20T23:16:50.138Z,11.70
2022-12-20T23:19:19.820Z,11.80
2022-12-20T23:22:05.337Z,11.50
2022-12-20T23:24:34.065Z,11.70
2022-12-20T23:27:03.272Z,11.60
2022-12-20T23:29:32.746Z,11.50
2022-12-20T23:32:01.418Z,11.60
2022-12-20T23:34:31.827Z,11.60
2022-12-20T23:37:00.150Z,11.60
2022-12-20T23:39:28.260Z,11.30
2022-12-20T23:41:56.455Z,11.30
2022-12-20T23:44:24.763Z,11.40
2022-12-20T23:46:52.943Z,11.20
2022-12-20T23:49:21.415Z,11.30
2022-12-20T23:51:51.504Z,11.50
2022-12-20T23:54:21.624Z,11.30
2022-12-20T23:56:50.917Z,11.50
2022-12-20T23:59:20.854Z,11.60
